UNR Ag. Experiment Farm, Sparks, Nevada Weather observations

Data are for 10 minute period ending at time listed.
 Day   Time   Solar   Ave.   Ave.  Ave.  Vector  Max.   Baro.   Total    
  of    of     Rad.   Air    Rel.  Wind   Wind   Wind  Press.  Precip.   
Year   Day            Temp.  Hum.  Speed  Dir.   Gust                    
2026   (PST)  Kw/m2    F      %     mph   deg.    mph    mb.     in.     
-------------------------------------------------------------------------
 125   13:30   0.79   65.9    43    4.2   261     9.4   862.5    0.00 
 125   13:40   0.78   67.3    41    2.9    81     7.9   862.4    0.00 
 125   13:50   1.00   67.1    39    3.0   157     7.5   862.3    0.00 
 125   14:00   0.67   67.2    39    2.6   110     6.8   862.3    0.00 
 125   14:10   0.95   67.9    36    2.7   228     8.6   862.1    0.00 
 125   14:20   0.94   69.5    31    2.7    58     7.3   861.9    0.00 
 125   14:30   0.91   69.4    34    7.3   340    15.7   861.8    0.00 
 125   14:40   0.91   69.2    34    8.0   333    16.0   861.6    0.00 
 125   14:50   0.88   69.7    32    6.0   349    14.9   861.5    0.00 
 125   15:00   0.85   70.0    30    9.6    10    16.3   861.4    0.00 
 125   15:10   0.80   70.3    31    9.6    32    16.4   861.4    0.00 
 125   15:20   0.78   70.5    30    9.5     8    16.8   861.3    0.00 
 125   15:30   0.56   70.1    29    7.2   347    11.8   861.3    0.00 
 125   15:40   0.65   69.6    30    7.7   335    12.1   861.3    0.00 
 125   15:50   0.60   70.7    29    5.7     1     9.7   861.2    0.00 
 125   16:00   0.49   70.0    30    5.2   350    11.3   861.2    0.00 
 125   16:10   0.48   70.7    28    5.1     8    11.5   861.1    0.00 
 125   16:20   0.33   69.3    30    6.8    10    13.8   861.1    0.00 
 125   16:30   0.51   70.5    29    4.6   335    11.5   861.1    0.00 
 125   16:40   0.39   70.5    30    6.3   337    10.0   861.1    0.00 
 125   16:50   0.47   70.6    30    8.0   326    11.3   861.1    0.00 
 125   17:00   0.44   71.0    28    4.9   324    11.8   861.1    0.00 
 125   17:10   0.38   71.2    30    6.0   331    10.7   861.0    0.00 
 125   17:20   0.34   70.8    31    4.0   324     6.6   861.1    0.00 
 125   17:30   0.29   71.3    28    4.0   304     8.4   861.0    0.00 
 125   17:40   0.26   70.3    31    4.6   306     8.9   861.0    0.00 
 125   17:50   0.22   70.2    30    4.8   286     8.0   861.0    0.00 
 125   18:00   0.18   70.2    30    4.0   281     7.6   861.1    0.00 
 125   18:10   0.08   68.9    32    2.7   311     5.6   861.1    0.00 
 125   18:20   0.12   67.9    34    4.2   285     5.4   861.1    0.00 
 125   18:30   0.09   67.9    37    3.9   252     6.6   861.2    0.00 
 125   18:40   0.04   65.6    41    4.0   239     5.3   861.3    0.00 
 125   18:50   0.02   65.5    39    4.0   253     7.2   861.4    0.00 
 125   19:00   0.01   65.1    41    2.7   213     3.9   861.6    0.00 
 125   19:10   0.00   62.6    48    3.9   171     7.0   861.8    0.00 
 125   19:20   0.00   62.6    49    5.8   182    10.1   861.9    0.00 
 125   19:30   0.00   61.8    52    4.1   185     7.5   862.0    0.00 
 125   19:40   0.00   62.6    50    6.1   194    11.0   862.1    0.00 
 125   19:50   0.00   64.7    46    3.7   147     7.5   862.2    0.00 
 125   20:00   0.00   63.7    50    3.2   171     5.7   862.4    0.00 
 125   20:10   0.00   63.1    50    3.7   216     7.1   862.8    0.00 
 125   20:20   0.00   62.4    52    3.0   179     6.3   862.8    0.00 
 125   20:30   0.00   61.2    57    3.0   140     5.0   862.9    0.00 
 125   20:40   0.00   60.2    58    3.9   134     5.3   863.1    0.00 
 125   20:50   0.00   59.5    59    4.5   153     5.3   863.2    0.00 
 125   21:00   0.00   59.3    60    2.9   148     5.3   863.3    0.00 
 125   21:10   0.00   59.0    60    3.6   137     5.4   863.3    0.00 
 125   21:20   0.00   57.8    63    1.3   176     4.1   863.5    0.00 
 125   21:30   0.00   57.2    62    3.1   192     7.5   863.6    0.00 
 125   21:40   0.00   56.4    63    3.3   232     4.5   863.7    0.00 
 125   21:50   0.00   56.6    61    2.8   134     4.6   863.9    0.00 
 125   22:00   0.00   57.6    58    3.7   207     5.7   864.0    0.00 
 125   22:10   0.00   55.4    63    2.1   119     4.6   864.1    0.00 
 125   22:20   0.00   56.4    62    3.9   155     7.1   864.3    0.00 
 125   22:30   0.00   56.8    61    4.5   178     7.7   864.4    0.00 
 125   22:40   0.00   55.5    66    4.9   190     6.7   864.5    0.00 
 125   22:50   0.00   55.3    66    5.4   189     7.1   864.6    0.00 
 125   23:00   0.00   55.3    66    4.3   175     6.8   864.7    0.00 
 125   23:10   0.00   55.6    65    3.4   176     6.4   864.8    0.00 
 125   23:20   0.00   55.2    66    3.9   171     6.0   864.8    0.00 
 125   23:30   0.00   54.5    68    3.7   170     5.6   864.9    0.00 
 125   23:40   0.00   54.9    66    3.7   175     6.0   865.0    0.00 
 125   23:50   0.00   54.9    67    3.5   174     5.7   865.0    0.00 
 126    0:00   0.00   54.3    67    4.0   181     6.4   865.2    0.00 
 126    0:10   0.00   53.8    68    3.5   243     5.5   865.3    0.00 
 126    0:20   0.00   54.1    68    3.0   204     4.4   865.4    0.00 
 126    0:30   0.00   54.5    65    1.9   266     3.1   865.5    0.00 
 126    0:40   0.00   55.1    64    2.8   257     4.9   865.5    0.00 
 126    0:50   0.00   54.4    66    3.0   250     3.8   865.6    0.00 
 126    1:00   0.00   53.3    69    1.6   258     2.9   865.6    0.00 
 126    1:10   0.00   51.5    74    0.9   188     2.2   865.7    0.00 
 126    1:20   0.00   50.4    77    2.1    51     4.8   865.7    0.00 
 126    1:30   0.00   50.6    75    2.1   341     3.7   865.8    0.00 
 126    1:40   0.00   51.7    72    2.7   326     3.9   865.8    0.00 
 126    1:50   0.00   52.7    68    1.3   300     3.0   866.0    0.00 
 126    2:00   0.00   51.1    72    1.9   209     3.7   866.0    0.00 
 126    2:10   0.00   51.5    72    1.2   179     2.5   866.1    0.00 
 126    2:20   0.00   51.5    72    0.6   209     1.7   866.2    0.00 
 126    2:30   0.00   49.2    78    0.3   352     1.2   866.4    0.00 
 126    2:40   0.00   47.3    82    1.6   357     2.5   866.5    0.00 
 126    2:50   0.00   47.5    83    1.8    32     2.4   866.6    0.00 
 126    3:00   0.00   47.0    84    2.3    68     3.6   866.7    0.00 
 126    3:10   0.00   46.0    86    0.7    43     1.5   866.8    0.00 
 126    3:20   0.00   46.6    88    0.8    22     1.6   867.0    0.00 
 126    3:30   0.00   47.3    89    1.3    21     2.1   867.1    0.00 
 126    3:40   0.00   47.9    86    0.7   271     1.6   867.2    0.00 
 126    3:50   0.00   46.8    88    1.0   199     2.9   867.3    0.00 
 126    4:00   0.00   47.1    88    1.8   179     2.6   867.4    0.00 
 126    4:10   0.00   46.9    85    2.1   210     3.2   867.5    0.00 
 126    4:20   0.00   45.5    88    1.1   233     2.4   867.6    0.00 
 126    4:30   0.00   45.9    89    2.4   234     3.5   867.7    0.00 
 126    4:40   0.00   47.4    85    1.9   238     3.6   867.8    0.00 
 126    4:50   0.00   46.0    88    0.9   221     2.0   868.0    0.00 
 126    5:00   0.00   45.3    88    0.5   235     1.5   868.2    0.00 
 126    5:10   0.01   45.1    91    0.7   206     1.9   868.3    0.00 
 126    5:20   0.02   45.6    91    0.5   190     1.8   868.5    0.00 
 126    5:30   0.07   44.7    89    0.1    59     1.6   868.6    0.00 
 126    5:40   0.09   44.7    92    0.3   156     1.1   868.7    0.00 
 126    5:50   0.13   46.3    91    0.3   128     1.3   868.8    0.00 
 126    6:00   0.16   47.3    90    0.3   233     1.3   868.9    0.00 
 126    6:10   0.19   48.6    90    0.5   261     1.4   869.0    0.00 
 126    6:20   0.22   51.2    85    1.1   102     2.6   869.2    0.00 
 126    6:30   0.25   52.8    81    1.9    84     3.1   869.3    0.00 
 126    6:40   0.29   54.0    76    2.2   112     3.7   869.4    0.00 
 126    6:50   0.33   55.2    69    1.4   118     2.7   869.5    0.00 
 126    7:00   0.37   56.7    64    0.7   257     1.4   869.5    0.00 
 126    7:10   0.41   57.8    62    0.4   230     1.5   869.6    0.00 
 126    7:20   0.45   60.0    58    0.3   101     1.1   869.6    0.00 
 126    7:30   0.48   61.4    54    1.0   204     3.3   869.6    0.00 
 126    7:40   0.52   60.5    54    0.8   229     2.7   869.7    0.00 
 126    7:50   0.56   61.7    52    0.6    12     1.9   869.7    0.00 
 126    8:00   0.60   62.9    51    1.0   151     3.0   869.7    0.00 
 126    8:10   0.63   64.6    48    1.1    89     2.7   869.7    0.00 
 126    8:20   0.67   64.9    49    1.2    25     3.2   869.7    0.00 
 126    8:30   0.70   65.5    47    0.8    96     2.5   869.8    0.00 
 126    8:40   0.73   65.6    47    2.4   101     4.9   869.9    0.00 
 126    8:50   0.76   65.8    46    2.7    86     5.0   869.9    0.00 
 126    9:00   0.80   65.8    44    2.1   198     5.3   869.8    0.00 
 126    9:10   0.82   65.7    44    1.9   248     4.3   869.8    0.00 
 126    9:20   0.85   66.5    41    2.0   167     4.3   869.8    0.00 
 126    9:30   0.88   67.2    41    2.4   145     5.2   869.8    0.00 
 126    9:40   0.91   67.2    40    3.8   140     7.8   869.9    0.00 
 126    9:50   0.93   68.8    37    2.9    41     6.7   870.0    0.00 
 126   10:00   0.96   68.9    33    4.9   339    12.2   869.9    0.00 
 126   10:10   0.98   69.1    31    6.1   357     9.6   869.9    0.00 
 126   10:20   1.00   69.1    29    6.3   312    12.3   869.9    0.00 
 126   10:30   1.01   69.3    29    6.7   299    12.2   869.8    0.00 
 126   10:40   1.03   70.2    29    3.5     9     6.9   869.8    0.00 
 126   10:50   1.05   71.1    28    3.5    47     9.2   869.8    0.00 
 126   11:00   1.06   71.3    28    3.3    82     6.4   869.7    0.00 
 126   11:10   1.07   71.7    30    5.0    52     8.5   869.7    0.00 
 126   11:20   1.08   72.1    29    4.1    56     6.9   869.7    0.00 
 126   11:30   1.08   71.7    28    6.5    81    13.2   869.6    0.00 
 126   11:40   1.09   71.4    27    2.7   259     5.1   869.6    0.00 
 126   11:50   1.09   72.6    29    4.7    20    11.0   869.5    0.00 
 126   12:00   1.10   72.7    24    4.0   318     8.4   869.4    0.00 
 126   12:10   1.10   73.3    27    3.1   318     6.4   869.3    0.00 
 126   12:20   1.09   74.0    25    6.5    31    14.7   869.4    0.00 
 126   12:30   1.09   73.9    22    7.8    31    15.6   869.3    0.00 
 126   12:40   1.08   74.1    22    6.2     3    12.0   869.2    0.00 
 126   12:50   1.08   74.4    20    5.5    27    11.5   869.2    0.00 
 126   13:00   1.07   74.4    20    5.3    13    11.7   869.1    0.00 
 126   13:10   1.06   75.0    20    6.8    40    14.7   869.0    0.00 
 126   13:20   1.04   75.8    19    6.8    54    12.2   868.9    0.00 

Return to Sparks, Nevada, UNR Ag Experiment Farm graphs page.


Western Regional Climate Center,wrcc@dri.edu